sensor_id;sensor_type;location;lat;lon;timestamp;temperature;humidity
10964;DHT22;5534;48.784;9.190;2023-11-21T00:02:20;11.40;99.90
10964;DHT22;5534;48.784;9.190;2023-11-21T00:04:47;11.40;99.90
10964;DHT22;5534;48.784;9.190;2023-11-21T00:07:16;11.40;99.90
10964;DHT22;5534;48.784;9.190;2023-11-21T00:09:42;11.30;99.90
10964;DHT22;5534;48.784;9.190;2023-11-21T00:12:11;11.40;99.90
10964;DHT22;5534;48.784;9.190;2023-11-21T00:14:40;11.40;99.90
10964;DHT22;5534;48.784;9.190;2023-11-21T00:17:06;11.40;99.90
10964;DHT22;5534;48.784;9.190;2023-11-21T00:19:32;11.40;99.90
10964;DHT22;5534;48.784;9.190;2023-11-21T00:21:59;11.30;99.90
10964;DHT22;5534;48.784;9.190;2023-11-21T00:24:25;11.20;99.90
10964;DHT22;5534;48.784;9.190;2023-11-21T00:26:51;11.20;99.90
10964;DHT22;5534;48.784;9.190;2023-11-21T00:29:21;11.20;99.90
10964;DHT22;5534;48.784;9.190;2023-11-21T00:31:47;11.30;99.90
10964;DHT22;5534;48.784;9.190;2023-11-21T00:34:15;11.20;99.90
10964;DHT22;5534;48.784;9.190;2023-11-21T00:36:41;11.30;99.90
10964;DHT22;5534;48.784;9.190;2023-11-21T00:39:10;11.40;99.90
10964;DHT22;5534;48.784;9.190;2023-11-21T00:41:37;11.40;99.90
10964;DHT22;5534;48.784;9.190;2023-11-21T00:44:23;11.30;99.90
10964;DHT22;5534;48.784;9.190;2023-11-21T00:46:56;11.30;99.90
10964;DHT22;5534;48.784;9.190;2023-11-21T00:49:31;11.30;99.90
10964;DHT22;5534;48.784;9.190;2023-11-21T00:52:04;11.30;99.90
10964;DHT22;5534;48.784;9.190;2023-11-21T00:54:32;11.30;99.90
10964;DHT22;5534;48.784;9.190;2023-11-21T00:56:58;11.20;99.90
10964;DHT22;5534;48.784;9.190;2023-11-21T00:59:24;11.30;99.90
10964;DHT22;5534;48.784;9.190;2023-11-21T01:01:56;11.30;99.90
10964;DHT22;5534;48.784;9.190;2023-11-21T01:04:27;11.30;99.90
10964;DHT22;5534;48.784;9.190;2023-11-21T01:06:56;11.40;99.90
10964;DHT22;5534;48.784;9.190;2023-11-21T01:09:24;11.30;99.90
10964;DHT22;5534;48.784;9.190;2023-11-21T01:11:59;11.30;99.90
10964;DHT22;5534;48.784;9.190;2023-11-21T01:14:25;11.30;99.90
10964;DHT22;5534;48.784;9.190;2023-11-21T01:16:54;11.20;99.90
10964;DHT22;5534;48.784;9.190;2023-11-21T01:19:20;11.20;99.90
10964;DHT22;5534;48.784;9.190;2023-11-21T01:21:45;11.20;99.90
10964;DHT22;5534;48.784;9.190;2023-11-21T01:24:11;11.20;99.90
10964;DHT22;5534;48.784;9.190;2023-11-21T01:26:43;11.30;99.90
10964;DHT22;5534;48.784;9.190;2023-11-21T01:29:41;11.30;99.90
10964;DHT22;5534;48.784;9.190;2023-11-21T01:32:06;11.30;99.90
10964;DHT22;5534;48.784;9.190;2023-11-21T01:34:33;11.30;99.90
10964;DHT22;5534;48.784;9.190;2023-11-21T01:36:59;11.40;99.90
10964;DHT22;5534;48.784;9.190;2023-11-21T01:39:25;11.40;99.90
10964;DHT22;5534;48.784;9.190;2023-11-21T01:41:52;11.40;99.90
10964;DHT22;5534;48.784;9.190;2023-11-21T01:44:18;11.30;99.90
10964;DHT22;5534;48.784;9.190;2023-11-21T01:46:45;11.30;99.90
10964;DHT22;5534;48.784;9.190;2023-11-21T01:49:13;11.30;99.90
10964;DHT22;5534;48.784;9.190;2023-11-21T01:51:48;11.40;99.90
10964;DHT22;5534;48.784;9.190;2023-11-21T01:54:35;11.30;99.90
10964;DHT22;5534;48.784;9.190;2023-11-21T01:57:08;11.20;99.90
10964;DHT22;5534;48.784;9.190;2023-11-21T01:59:38;11.20;99.90
10964;DHT22;5534;48.784;9.190;2023-11-21T02:02:05;11.40;99.90
10964;DHT22;5534;48.784;9.190;2023-11-21T02:04:32;11.40;99.90
10964;DHT22;5534;48.784;9.190;2023-11-21T02:07:01;11.30;99.90
10964;DHT22;5534;48.784;9.190;2023-11-21T02:09:27;11.30;99.90
10964;DHT22;5534;48.784;9.190;2023-11-21T02:11:55;11.30;99.90
10964;DHT22;5534;48.784;9.190;2023-11-21T02:14:21;11.30;99.90
10964;DHT22;5534;48.784;9.190;2023-11-21T02:16:50;11.40;99.90
10964;DHT22;5534;48.784;9.190;2023-11-21T02:19:19;11.40;99.90
10964;DHT22;5534;48.784;9.190;2023-11-21T02:21:52;11.30;99.90
10964;DHT22;5534;48.784;9.190;2023-11-21T02:24:21;11.40;99.90
10964;DHT22;5534;48.784;9.190;2023-11-21T02:26:48;11.30;99.90
10964;DHT22;5534;48.784;9.190;2023-11-21T02:29:20;11.30;99.90
10964;DHT22;5534;48.784;9.190;2023-11-21T02:31:54;11.30;99.90
10964;DHT22;5534;48.784;9.190;2023-11-21T02:34:21;11.30;99.90
10964;DHT22;5534;48.784;9.190;2023-11-21T02:36:47;11.30;99.90
10964;DHT22;5534;48.784;9.190;2023-11-21T02:39:15;11.30;99.90
10964;DHT22;5534;48.784;9.190;2023-11-21T02:41:42;11.20;99.90
10964;DHT22;5534;48.784;9.190;2023-11-21T02:44:11;11.30;99.90
10964;DHT22;5534;48.784;9.190;2023-11-21T02:46:37;11.20;99.90
10964;DHT22;5534;48.784;9.190;2023-11-21T02:49:06;11.20;99.90
10964;DHT22;5534;48.784;9.190;2023-11-21T02:51:35;11.30;99.90
10964;DHT22;5534;48.784;9.190;2023-11-21T02:54:03;11.40;99.90
10964;DHT22;5534;48.784;9.190;2023-11-21T02:56:32;11.20;99.90
10964;DHT22;5534;48.784;9.190;2023-11-21T02:59:01;11.30;99.90
10964;DHT22;5534;48.784;9.190;2023-11-21T03:01:27;11.30;99.90
10964;DHT22;5534;48.784;9.190;2023-11-21T03:03:53;11.30;99.90
10964;DHT22;5534;48.784;9.190;2023-11-21T03:06:21;11.30;99.90
10964;DHT22;5534;48.784;9.190;2023-11-21T03:08:46;11.30;99.90
10964;DHT22;5534;48.784;9.190;2023-11-21T03:11:13;11.30;99.90
10964;DHT22;5534;48.784;9.190;2023-11-21T03:13:40;11.30;99.90
10964;DHT22;5534;48.784;9.190;2023-11-21T03:16:08;11.20;99.90
10964;DHT22;5534;48.784;9.190;2023-11-21T03:18:34;11.20;99.90
10964;DHT22;5534;48.784;9.190;2023-11-21T03:21:00;11.20;99.90
10964;DHT22;5534;48.784;9.190;2023-11-21T03:23:25;11.20;99.90
10964;DHT22;5534;48.784;9.190;2023-11-21T03:25:51;11.20;99.90
10964;DHT22;5534;48.784;9.190;2023-11-21T03:28:18;11.20;99.90
10964;DHT22;5534;48.784;9.190;2023-11-21T03:30:44;11.20;99.90
10964;DHT22;5534;48.784;9.190;2023-11-21T03:33:09;11.20;99.90
10964;DHT22;5534;48.784;9.190;2023-11-21T03:35:35;11.20;99.90
10964;DHT22;5534;48.784;9.190;2023-11-21T03:38:03;11.20;99.90
10964;DHT22;5534;48.784;9.190;2023-11-21T03:40:32;11.20;99.90
10964;DHT22;5534;48.784;9.190;2023-11-21T03:42:58;11.20;99.90
10964;DHT22;5534;48.784;9.190;2023-11-21T03:45:24;11.20;99.90
10964;DHT22;5534;48.784;9.190;2023-11-21T03:47:50;11.20;99.90
10964;DHT22;5534;48.784;9.190;2023-11-21T03:50:16;11.20;99.90
10964;DHT22;5534;48.784;9.190;2023-11-21T03:52:42;11.20;99.90
10964;DHT22;5534;48.784;9.190;2023-11-21T03:55:08;11.20;99.90
10964;DHT22;5534;48.784;9.190;2023-11-21T03:57:36;11.20;99.90
10964;DHT22;5534;48.784;9.190;2023-11-21T04:00:02;11.20;99.90
10964;DHT22;5534;48.784;9.190;2023-11-21T04:02:29;11.30;99.90
10964;DHT22;5534;48.784;9.190;2023-11-21T04:04:57;11.20;99.90
10964;DHT22;5534;48.784;9.190;2023-11-21T04:07:23;11.30;99.90
10964;DHT22;5534;48.784;9.190;2023-11-21T04:09:48;11.30;99.90
10964;DHT22;5534;48.784;9.190;2023-11-21T04:12:14;11.30;99.90
10964;DHT22;5534;48.784;9.190;2023-11-21T04:14:40;11.20;99.90
10964;DHT22;5534;48.784;9.190;2023-11-21T04:17:06;11.20;99.90
10964;DHT22;5534;48.784;9.190;2023-11-21T04:19:32;11.20;99.90
10964;DHT22;5534;48.784;9.190;2023-11-21T04:21:57;11.20;99.90
10964;DHT22;5534;48.784;9.190;2023-11-21T04:24:23;11.10;99.90
10964;DHT22;5534;48.784;9.190;2023-11-21T04:26:49;11.10;99.90
10964;DHT22;5534;48.784;9.190;2023-11-21T04:29:15;11.20;99.90
10964;DHT22;5534;48.784;9.190;2023-11-21T04:31:40;11.10;99.90
10964;DHT22;5534;48.784;9.190;2023-11-21T04:34:07;11.10;99.90
10964;DHT22;5534;48.784;9.190;2023-11-21T04:36:33;11.10;99.90
10964;DHT22;5534;48.784;9.190;2023-11-21T04:39:00;11.00;99.90
10964;DHT22;5534;48.784;9.190;2023-11-21T04:41:26;11.10;99.90
10964;DHT22;5534;48.784;9.190;2023-11-21T04:43:52;11.00;99.90
10964;DHT22;5534;48.784;9.190;2023-11-21T04:46:18;11.10;99.90
10964;DHT22;5534;48.784;9.190;2023-11-21T04:48:44;11.10;99.90
10964;DHT22;5534;48.784;9.190;2023-11-21T04:51:09;11.10;99.90
10964;DHT22;5534;48.784;9.190;2023-11-21T04:53:37;11.00;99.90
10964;DHT22;5534;48.784;9.190;2023-11-21T04:56:03;11.00;99.90
10964;DHT22;5534;48.784;9.190;2023-11-21T04:58:29;11.10;99.90
10964;DHT22;5534;48.784;9.190;2023-11-21T05:00:56;11.00;99.90
10964;DHT22;5534;48.784;9.190;2023-11-21T05:03:21;11.10;99.90
10964;DHT22;5534;48.784;9.190;2023-11-21T05:05:49;11.00;99.90
10964;DHT22;5534;48.784;9.190;2023-11-21T05:08:15;11.10;99.90
10964;DHT22;5534;48.784;9.190;2023-11-21T05:10:40;11.10;99.90
10964;DHT22;5534;48.784;9.190;2023-11-21T05:13:06;11.00;99.90
10964;DHT22;5534;48.784;9.190;2023-11-21T05:15:36;11.00;99.90
10964;DHT22;5534;48.784;9.190;2023-11-21T05:18:03;11.00;99.90
10964;DHT22;5534;48.784;9.190;2023-11-21T05:20:29;11.00;99.90
10964;DHT22;5534;48.784;9.190;2023-11-21T05:22:54;11.10;99.90
10964;DHT22;5534;48.784;9.190;2023-11-21T05:25:20;11.10;99.90
10964;DHT22;5534;48.784;9.190;2023-11-21T05:27:47;11.10;99.90
10964;DHT22;5534;48.784;9.190;2023-11-21T05:30:13;11.20;99.90
10964;DHT22;5534;48.784;9.190;2023-11-21T05:32:40;11.10;99.90
10964;DHT22;5534;48.784;9.190;2023-11-21T05:35:09;11.10;99.90
10964;DHT22;5534;48.784;9.190;2023-11-21T05:37:39;11.10;99.90
10964;DHT22;5534;48.784;9.190;2023-11-21T05:40:06;11.10;99.90
10964;DHT22;5534;48.784;9.190;2023-11-21T05:42:33;11.10;99.90
10964;DHT22;5534;48.784;9.190;2023-11-21T05:44:59;11.10;99.90
10964;DHT22;5534;48.784;9.190;2023-11-21T05:47:37;11.10;99.90
10964;DHT22;5534;48.784;9.190;2023-11-21T05:50:04;11.10;99.90
10964;DHT22;5534;48.784;9.190;2023-11-21T05:52:31;11.10;99.90
10964;DHT22;5534;48.784;9.190;2023-11-21T05:54:58;11.10;99.90
10964;DHT22;5534;48.784;9.190;2023-11-21T05:57:23;11.00;99.90
10964;DHT22;5534;48.784;9.190;2023-11-21T05:59:49;11.00;99.90
10964;DHT22;5534;48.784;9.190;2023-11-21T06:02:15;11.00;99.90
10964;DHT22;5534;48.784;9.190;2023-11-21T06:04:40;11.00;99.90
10964;DHT22;5534;48.784;9.190;2023-11-21T06:07:06;11.00;99.90
10964;DHT22;5534;48.784;9.190;2023-11-21T06:09:32;11.10;99.90
10964;DHT22;5534;48.784;9.190;2023-11-21T06:11:58;11.10;99.90
10964;DHT22;5534;48.784;9.190;2023-11-21T06:14:24;11.00;99.90
10964;DHT22;5534;48.784;9.190;2023-11-21T06:16:49;10.90;99.90
10964;DHT22;5534;48.784;9.190;2023-11-21T06:19:17;11.00;99.90
10964;DHT22;5534;48.784;9.190;2023-11-21T06:21:46;11.00;99.90
10964;DHT22;5534;48.784;9.190;2023-11-21T06:24:12;11.10;99.90
10964;DHT22;5534;48.784;9.190;2023-11-21T06:26:38;11.10;99.90
10964;DHT22;5534;48.784;9.190;2023-11-21T06:29:04;11.10;99.90
10964;DHT22;5534;48.784;9.190;2023-11-21T06:31:30;11.10;99.90
10964;DHT22;5534;48.784;9.190;2023-11-21T06:33:56;11.10;99.90
10964;DHT22;5534;48.784;9.190;2023-11-21T06:36:23;11.20;99.90
10964;DHT22;5534;48.784;9.190;2023-11-21T06:38:49;11.10;99.90
10964;DHT22;5534;48.784;9.190;2023-11-21T06:41:14;11.20;99.90
10964;DHT22;5534;48.784;9.190;2023-11-21T06:43:40;11.10;99.90
10964;DHT22;5534;48.784;9.190;2023-11-21T06:46:06;11.00;99.90
10964;DHT22;5534;48.784;9.190;2023-11-21T06:48:32;11.10;99.90
10964;DHT22;5534;48.784;9.190;2023-11-21T06:50:58;11.00;99.90
10964;DHT22;5534;48.784;9.190;2023-11-21T06:53:23;11.10;99.90
10964;DHT22;5534;48.784;9.190;2023-11-21T06:55:50;11.10;99.90
10964;DHT22;5534;48.784;9.190;2023-11-21T06:58:15;11.00;99.90
10964;DHT22;5534;48.784;9.190;2023-11-21T07:00:41;11.00;99.90
10964;DHT22;5534;48.784;9.190;2023-11-21T07:03:12;11.10;99.90
10964;DHT22;5534;48.784;9.190;2023-11-21T07:05:37;11.00;99.90
10964;DHT22;5534;48.784;9.190;2023-11-21T07:08:03;11.00;99.90
10964;DHT22;5534;48.784;9.190;2023-11-21T07:10:35;11.10;99.90
10964;DHT22;5534;48.784;9.190;2023-11-21T07:13:02;11.20;99.90
10964;DHT22;5534;48.784;9.190;2023-11-21T07:15:28;11.10;99.90
10964;DHT22;5534;48.784;9.190;2023-11-21T07:17:55;11.10;99.90
10964;DHT22;5534;48.784;9.190;2023-11-21T07:20:20;11.20;99.90
10964;DHT22;5534;48.784;9.190;2023-11-21T07:22:47;11.00;99.90
10964;DHT22;5534;48.784;9.190;2023-11-21T07:25:12;11.00;99.90
10964;DHT22;5534;48.784;9.190;2023-11-21T07:27:38;11.10;99.90
10964;DHT22;5534;48.784;9.190;2023-11-21T07:30:04;11.20;99.90
10964;DHT22;5534;48.784;9.190;2023-11-21T07:32:31;11.20;99.90
10964;DHT22;5534;48.784;9.190;2023-11-21T07:34:57;11.20;99.90
10964;DHT22;5534;48.784;9.190;2023-11-21T07:37:25;11.20;99.90
10964;DHT22;5534;48.784;9.190;2023-11-21T07:39:54;11.10;99.90
10964;DHT22;5534;48.784;9.190;2023-11-21T07:42:24;11.20;99.90
10964;DHT22;5534;48.784;9.190;2023-11-21T07:44:52;11.20;99.90
10964;DHT22;5534;48.784;9.190;2023-11-21T07:47:18;10.90;99.90
10964;DHT22;5534;48.784;9.190;2023-11-21T07:49:43;10.90;99.90
10964;DHT22;5534;48.784;9.190;2023-11-21T07:52:10;11.00;99.90
10964;DHT22;5534;48.784;9.190;2023-11-21T07:54:36;11.10;99.90
10964;DHT22;5534;48.784;9.190;2023-11-21T07:57:02;11.20;99.90
10964;DHT22;5534;48.784;9.190;2023-11-21T07:59:32;11.10;99.90
10964;DHT22;5534;48.784;9.190;2023-11-21T08:01:58;11.10;99.90
10964;DHT22;5534;48.784;9.190;2023-11-21T08:04:25;11.00;99.90
10964;DHT22;5534;48.784;9.190;2023-11-21T08:06:50;11.00;99.90
10964;DHT22;5534;48.784;9.190;2023-11-21T08:09:16;11.00;99.90
10964;DHT22;5534;48.784;9.190;2023-11-21T08:11:43;11.30;99.90
10964;DHT22;5534;48.784;9.190;2023-11-21T08:14:08;11.40;99.90
10964;DHT22;5534;48.784;9.190;2023-11-21T08:16:34;11.40;99.90
10964;DHT22;5534;48.784;9.190;2023-11-21T08:19:00;11.40;99.90
10964;DHT22;5534;48.784;9.190;2023-11-21T08:21:29;11.40;99.90
10964;DHT22;5534;48.784;9.190;2023-11-21T08:23:55;11.30;99.90
10964;DHT22;5534;48.784;9.190;2023-11-21T08:26:22;11.30;99.90
10964;DHT22;5534;48.784;9.190;2023-11-21T08:28:48;11.40;99.90
10964;DHT22;5534;48.784;9.190;2023-11-21T08:31:14;11.50;99.90
10964;DHT22;5534;48.784;9.190;2023-11-21T08:33:40;11.30;99.90
10964;DHT22;5534;48.784;9.190;2023-11-21T08:36:09;11.40;99.90
10964;DHT22;5534;48.784;9.190;2023-11-21T08:38:36;11.40;99.90
10964;DHT22;5534;48.784;9.190;2023-11-21T08:41:05;11.40;99.90
10964;DHT22;5534;48.784;9.190;2023-11-21T08:43:34;11.30;99.90
10964;DHT22;5534;48.784;9.190;2023-11-21T08:46:00;11.30;99.90
10964;DHT22;5534;48.784;9.190;2023-11-21T08:48:28;11.40;99.90
10964;DHT22;5534;48.784;9.190;2023-11-21T08:50:55;11.40;99.90
10964;DHT22;5534;48.784;9.190;2023-11-21T08:53:21;11.40;99.90
10964;DHT22;5534;48.784;9.190;2023-11-21T08:55:47;11.50;99.90
10964;DHT22;5534;48.784;9.190;2023-11-21T08:58:13;11.60;99.90
10964;DHT22;5534;48.784;9.190;2023-11-21T09:00:40;11.60;99.90
10964;DHT22;5534;48.784;9.190;2023-11-21T09:03:06;11.80;99.90
10964;DHT22;5534;48.784;9.190;2023-11-21T09:05:37;11.80;99.90
10964;DHT22;5534;48.784;9.190;2023-11-21T09:08:04;11.80;99.90
10964;DHT22;5534;48.784;9.190;2023-11-21T09:10:29;11.90;99.90
10964;DHT22;5534;48.784;9.190;2023-11-21T09:12:55;12.00;99.90
10964;DHT22;5534;48.784;9.190;2023-11-21T09:15:21;11.90;99.90
10964;DHT22;5534;48.784;9.190;2023-11-21T09:17:47;11.90;99.90
10964;DHT22;5534;48.784;9.190;2023-11-21T09:20:14;11.90;99.90
10964;DHT22;5534;48.784;9.190;2023-11-21T09:22:40;11.90;99.90
10964;DHT22;5534;48.784;9.190;2023-11-21T09:25:07;12.00;99.90
10964;DHT22;5534;48.784;9.190;2023-11-21T09:27:34;12.00;99.90
10964;DHT22;5534;48.784;9.190;2023-11-21T09:30:01;12.00;99.90
10964;DHT22;5534;48.784;9.190;2023-11-21T09:32:27;12.10;99.90
10964;DHT22;5534;48.784;9.190;2023-11-21T09:34:53;12.10;99.90
10964;DHT22;5534;48.784;9.190;2023-11-21T09:37:21;12.20;99.90
10964;DHT22;5534;48.784;9.190;2023-11-21T09:39:46;12.30;99.90
10964;DHT22;5534;48.784;9.190;2023-11-21T09:42:17;12.20;99.90
10964;DHT22;5534;48.784;9.190;2023-11-21T09:45:08;12.30;99.90
10964;DHT22;5534;48.784;9.190;2023-11-21T09:47:38;12.30;99.90
10964;DHT22;5534;48.784;9.190;2023-11-21T09:50:05;12.30;99.90
10964;DHT22;5534;48.784;9.190;2023-11-21T09:53:28;12.20;99.90
10964;DHT22;5534;48.784;9.190;2023-11-21T09:55:34;12.20;99.90
10964;DHT22;5534;48.784;9.190;2023-11-21T09:58:02;12.10;99.90
10964;DHT22;5534;48.784;9.190;2023-11-21T10:00:31;12.10;99.90
10964;DHT22;5534;48.784;9.190;2023-11-21T10:02:59;12.10;99.90
10964;DHT22;5534;48.784;9.190;2023-11-21T10:05:25;12.20;99.90
10964;DHT22;5534;48.784;9.190;2023-11-21T10:07:52;12.10;99.90
10964;DHT22;5534;48.784;9.190;2023-11-21T10:10:19;12.20;99.90
10964;DHT22;5534;48.784;9.190;2023-11-21T10:12:49;12.30;99.90
10964;DHT22;5534;48.784;9.190;2023-11-21T10:15:22;12.20;99.90
10964;DHT22;5534;48.784;9.190;2023-11-21T10:17:49;12.20;99.90
10964;DHT22;5534;48.784;9.190;2023-11-21T10:20:16;12.20;99.90
10964;DHT22;5534;48.784;9.190;2023-11-21T10:22:42;12.10;99.90
10964;DHT22;5534;48.784;9.190;2023-11-21T10:25:12;12.00;99.90
10964;DHT22;5534;48.784;9.190;2023-11-21T10:27:42;12.00;99.90
10964;DHT22;5534;48.784;9.190;2023-11-21T10:30:09;11.90;99.90
10964;DHT22;5534;48.784;9.190;2023-11-21T10:32:43;11.90;99.90
10964;DHT22;5534;48.784;9.190;2023-11-21T10:35:09;11.70;99.90
10964;DHT22;5534;48.784;9.190;2023-11-21T10:37:39;11.60;99.90
10964;DHT22;5534;48.784;9.190;2023-11-21T10:40:10;11.60;99.90
10964;DHT22;5534;48.784;9.190;2023-11-21T10:42:41;11.50;99.90
10964;DHT22;5534;48.784;9.190;2023-11-21T10:45:10;11.60;99.90
10964;DHT22;5534;48.784;9.190;2023-11-21T10:47:43;11.60;99.90
10964;DHT22;5534;48.784;9.190;2023-11-21T10:50:10;11.70;99.90
10964;DHT22;5534;48.784;9.190;2023-11-21T10:52:40;11.70;99.90
10964;DHT22;5534;48.784;9.190;2023-11-21T10:55:20;11.80;99.90
10964;DHT22;5534;48.784;9.190;2023-11-21T10:57:53;11.80;99.90
10964;DHT22;5534;48.784;9.190;2023-11-21T11:00:19;11.90;99.90
10964;DHT22;5534;48.784;9.190;2023-11-21T11:02:53;12.00;99.90
10964;DHT22;5534;48.784;9.190;2023-11-21T11:05:21;12.00;99.90
10964;DHT22;5534;48.784;9.190;2023-11-21T11:07:52;12.10;99.90
10964;DHT22;5534;48.784;9.190;2023-11-21T11:10:26;12.10;99.90
10964;DHT22;5534;48.784;9.190;2023-11-21T11:12:54;12.20;99.90
10964;DHT22;5534;48.784;9.190;2023-11-21T11:15:21;12.20;99.90
10964;DHT22;5534;48.784;9.190;2023-11-21T11:17:48;12.20;99.90
10964;DHT22;5534;48.784;9.190;2023-11-21T11:20:15;12.10;99.90
10964;DHT22;5534;48.784;9.190;2023-11-21T11:23:59;12.20;99.90
10964;DHT22;5534;48.784;9.190;2023-11-21T11:26:15;12.30;99.90
10964;DHT22;5534;48.784;9.190;2023-11-21T11:34:02;12.40;99.90
10964;DHT22;5534;48.784;9.190;2023-11-21T11:37:03;12.30;99.90
10964;DHT22;5534;48.784;9.190;2023-11-21T11:42:07;12.30;99.90
10964;DHT22;5534;48.784;9.190;2023-11-21T11:44:46;12.30;99.90
10964;DHT22;5534;48.784;9.190;2023-11-21T11:47:16;12.20;99.90
10964;DHT22;5534;48.784;9.190;2023-11-21T11:49:58;12.20;99.90
10964;DHT22;5534;48.784;9.190;2023-11-21T11:52:35;12.10;99.90
10964;DHT22;5534;48.784;9.190;2023-11-21T11:55:02;12.10;99.90
10964;DHT22;5534;48.784;9.190;2023-11-21T11:57:34;11.90;99.90
10964;DHT22;5534;48.784;9.190;2023-11-21T12:02:50;12.20;99.90
10964;DHT22;5534;48.784;9.190;2023-11-21T12:05:18;12.10;99.90
10964;DHT22;5534;48.784;9.190;2023-11-21T12:10:17;12.20;99.90
10964;DHT22;5534;48.784;9.190;2023-11-21T12:13:05;12.20;99.90
10964;DHT22;5534;48.784;9.190;2023-11-21T12:15:36;12.30;99.90
10964;DHT22;5534;48.784;9.190;2023-11-21T12:18:02;12.10;99.90
10964;DHT22;5534;48.784;9.190;2023-11-21T12:20:31;12.10;99.90
10964;DHT22;5534;48.784;9.190;2023-11-21T12:22:58;11.80;99.90
10964;DHT22;5534;48.784;9.190;2023-11-21T12:25:29;11.80;99.90
10964;DHT22;5534;48.784;9.190;2023-11-21T12:27:58;11.90;99.90
10964;DHT22;5534;48.784;9.190;2023-11-21T12:30:26;12.00;99.90
10964;DHT22;5534;48.784;9.190;2023-11-21T12:32:55;12.00;99.90
10964;DHT22;5534;48.784;9.190;2023-11-21T12:35:35;12.00;99.90
10964;DHT22;5534;48.784;9.190;2023-11-21T12:38:02;12.00;99.90
10964;DHT22;5534;48.784;9.190;2023-11-21T12:40:29;12.00;99.90
10964;DHT22;5534;48.784;9.190;2023-11-21T12:42:57;12.10;99.90
10964;DHT22;5534;48.784;9.190;2023-11-21T12:45:24;12.00;99.90
10964;DHT22;5534;48.784;9.190;2023-11-21T12:47:54;12.10;99.90
10964;DHT22;5534;48.784;9.190;2023-11-21T12:50:22;12.20;99.90
10964;DHT22;5534;48.784;9.190;2023-11-21T12:53:01;12.20;99.90
10964;DHT22;5534;48.784;9.190;2023-11-21T12:55:33;12.20;99.90
10964;DHT22;5534;48.784;9.190;2023-11-21T12:58:07;12.20;99.90
10964;DHT22;5534;48.784;9.190;2023-11-21T13:00:40;12.20;99.90
10964;DHT22;5534;48.784;9.190;2023-11-21T13:03:09;12.20;99.90
10964;DHT22;5534;48.784;9.190;2023-11-21T13:05:39;12.20;99.90
10964;DHT22;5534;48.784;9.190;2023-11-21T13:08:10;12.20;99.90
10964;DHT22;5534;48.784;9.190;2023-11-21T13:10:40;12.10;99.90
10964;DHT22;5534;48.784;9.190;2023-11-21T13:13:10;12.10;99.90
10964;DHT22;5534;48.784;9.190;2023-11-21T13:15:39;12.00;99.90
10964;DHT22;5534;48.784;9.190;2023-11-21T13:18:06;12.00;99.90
10964;DHT22;5534;48.784;9.190;2023-11-21T13:20:32;12.00;99.90
10964;DHT22;5534;48.784;9.190;2023-11-21T13:22:59;12.00;99.90
10964;DHT22;5534;48.784;9.190;2023-11-21T13:25:27;11.60;99.90
10964;DHT22;5534;48.784;9.190;2023-11-21T13:28:02;11.50;99.90
10964;DHT22;5534;48.784;9.190;2023-11-21T13:30:28;11.50;99.90
10964;DHT22;5534;48.784;9.190;2023-11-21T13:33:05;11.30;99.90
10964;DHT22;5534;48.784;9.190;2023-11-21T13:35:36;11.20;99.90
10964;DHT22;5534;48.784;9.190;2023-11-21T13:38:13;11.00;99.90
10964;DHT22;5534;48.784;9.190;2023-11-21T13:40:47;11.00;99.90
10964;DHT22;5534;48.784;9.190;2023-11-21T13:43:24;11.10;99.90
10964;DHT22;5534;48.784;9.190;2023-11-21T13:45:52;11.10;99.90
10964;DHT22;5534;48.784;9.190;2023-11-21T13:48:33;11.00;99.90
10964;DHT22;5534;48.784;9.190;2023-11-21T13:51:13;10.90;99.90
10964;DHT22;5534;48.784;9.190;2023-11-21T13:53:48;10.90;99.90
10964;DHT22;5534;48.784;9.190;2023-11-21T13:56:18;11.10;99.90
10964;DHT22;5534;48.784;9.190;2023-11-21T13:58:51;11.20;99.90
10964;DHT22;5534;48.784;9.190;2023-11-21T14:01:18;11.10;99.90
10964;DHT22;5534;48.784;9.190;2023-11-21T14:03:56;11.20;99.90
10964;DHT22;5534;48.784;9.190;2023-11-21T14:06:28;11.20;99.90
10964;DHT22;5534;48.784;9.190;2023-11-21T14:09:03;11.20;99.90
10964;DHT22;5534;48.784;9.190;2023-11-21T14:11:31;11.30;99.90
10964;DHT22;5534;48.784;9.190;2023-11-21T14:13:57;11.40;99.90
10964;DHT22;5534;48.784;9.190;2023-11-21T14:16:27;11.30;99.90
10964;DHT22;5534;48.784;9.190;2023-11-21T14:18:53;11.40;99.90
10964;DHT22;5534;48.784;9.190;2023-11-21T14:21:26;11.60;99.90
10964;DHT22;5534;48.784;9.190;2023-11-21T14:23:52;11.30;99.90
10964;DHT22;5534;48.784;9.190;2023-11-21T14:26:20;11.30;99.90
10964;DHT22;5534;48.784;9.190;2023-11-21T14:28:46;11.40;99.90
10964;DHT22;5534;48.784;9.190;2023-11-21T14:31:14;11.30;99.90
10964;DHT22;5534;48.784;9.190;2023-11-21T14:33:45;11.30;99.90
10964;DHT22;5534;48.784;9.190;2023-11-21T14:36:11;11.30;99.90
10964;DHT22;5534;48.784;9.190;2023-11-21T14:38:37;11.30;99.90
10964;DHT22;5534;48.784;9.190;2023-11-21T14:41:06;11.30;99.90
10964;DHT22;5534;48.784;9.190;2023-11-21T14:43:34;11.30;99.90
10964;DHT22;5534;48.784;9.190;2023-11-21T14:46:02;11.40;99.90
10964;DHT22;5534;48.784;9.190;2023-11-21T14:48:29;11.40;99.90
10964;DHT22;5534;48.784;9.190;2023-11-21T14:51:13;11.50;99.90
10964;DHT22;5534;48.784;9.190;2023-11-21T14:53:53;11.40;99.90
10964;DHT22;5534;48.784;9.190;2023-11-21T14:56:22;11.50;99.90
10964;DHT22;5534;48.784;9.190;2023-11-21T14:58:55;11.50;99.90
10964;DHT22;5534;48.784;9.190;2023-11-21T15:01:23;11.50;99.90
10964;DHT22;5534;48.784;9.190;2023-11-21T15:04:07;11.60;99.90
10964;DHT22;5534;48.784;9.190;2023-11-21T15:06:36;11.50;99.90
10964;DHT22;5534;48.784;9.190;2023-11-21T15:09:01;11.40;99.90
10964;DHT22;5534;48.784;9.190;2023-11-21T15:11:34;11.40;99.90
10964;DHT22;5534;48.784;9.190;2023-11-21T15:14:00;11.40;99.90
10964;DHT22;5534;48.784;9.190;2023-11-21T15:16:26;11.50;99.90
10964;DHT22;5534;48.784;9.190;2023-11-21T15:18:55;11.50;99.90
10964;DHT22;5534;48.784;9.190;2023-11-21T15:21:21;11.50;99.90
10964;DHT22;5534;48.784;9.190;2023-11-21T15:23:48;11.50;99.90
10964;DHT22;5534;48.784;9.190;2023-11-21T15:26:14;11.60;99.90
10964;DHT22;5534;48.784;9.190;2023-11-21T15:28:39;11.60;99.90
10964;DHT22;5534;48.784;9.190;2023-11-21T15:31:06;11.60;99.90
10964;DHT22;5534;48.784;9.190;2023-11-21T15:33:33;11.60;99.90
10964;DHT22;5534;48.784;9.190;2023-11-21T15:36:01;11.60;99.90
10964;DHT22;5534;48.784;9.190;2023-11-21T15:38:28;11.60;99.90
10964;DHT22;5534;48.784;9.190;2023-11-21T15:40:54;11.50;99.90
10964;DHT22;5534;48.784;9.190;2023-11-21T15:43:20;11.50;99.90
10964;DHT22;5534;48.784;9.190;2023-11-21T15:45:46;11.50;99.90
10964;DHT22;5534;48.784;9.190;2023-11-21T15:48:12;11.50;99.90
10964;DHT22;5534;48.784;9.190;2023-11-21T15:50:37;11.60;99.90
10964;DHT22;5534;48.784;9.190;2023-11-21T15:53:03;11.50;99.90
10964;DHT22;5534;48.784;9.190;2023-11-21T15:55:30;11.50;99.90
10964;DHT22;5534;48.784;9.190;2023-11-21T15:57:56;11.50;99.90
10964;DHT22;5534;48.784;9.190;2023-11-21T16:00:22;11.50;99.90
10964;DHT22;5534;48.784;9.190;2023-11-21T16:02:50;11.50;99.90
10964;DHT22;5534;48.784;9.190;2023-11-21T16:05:15;11.40;99.90
10964;DHT22;5534;48.784;9.190;2023-11-21T16:07:43;11.40;99.90